Khassab, Oman
Current Conditions -  °F | °C
As of 1:00 AM on Thursday 27 Nov 2014 (Local Time) from OIKQ Reporting Station
Few Clouds Few Clouds  
Wind Chill: 70°   Ceiling: Unl
Heat Index: 70°   Visibility: 4mi
Dew Point: 64°   Wind: 7mph
Humidity: 83%   Direction: 270°W
Pressure: 29.88"   Gusts: NA
Location:  26.22°N, 56.23°E
Report Text: OIKQ 262100Z 27006KT 7000 FEW030 21/18 Q1012
Loading
Personal Weather Stations






























Interactive Weather Map New forecast layout! Learn more

10-Day Weather Forecast

Advertisements
Track Severe Weather on mobile